Forside
METAR-TAF:

METAR-TAF

Lufthavne :

Adrian, Michigan, USA

Breddekreds: 41-52-04N, længdekreds: 084-04-46W, højde: 244 m

Aktuelle vejr

Denne rapport blev lavet for 36 minutter siden, kl. 17:53 UTC
Vind 14 kt fra sydvest
Temperatur 8°C
Fugtighed 46%
Tryk 1015 hPa
Sigt: 16.1 km
skyfri

METAR: KADG 231753Z AUTO 22014KT 10SM CLR 08/M03 A2998 RMK AO2 SLP161 T00781028 10078 21022 58023

Tid: 13:29 (18:29 UTC)


TAF: fraværende

Vejrobservationer og prognoser fra mere end 4000 lufthavne (METAR og TAF).

De gule og røde prikker repræsenterer de meteorologiske stationer.

Flyt musen over at se navnet på stationen.

Så klik over at se vejr observationer og prognoser.

At skifte det kort: Klik på de grønne knapper med et sort kors for at zoome ind; på den grønne knap med en bindestreg for at zoome ud; eller på de grønne pile for tilstødende kort.


METAR-TAF: